HTL weather

Roscommon County - Blodgett Memorial Airport
Houghton Lake, Michigan, United States

Public forecast

Using degrees Fahrenheit for public forecast. Weather courtesy of forecast.io.

METAR (pilot weather report)

Retrieved 2019/06/17 16:53 UTC (1 hour ago):

KHTL 171653Z AUTO 22007KT 10SM SCT035 19/09 A3005 RMK AO2 SLP175 T01940094

TAF (pilot weather forecast)

Closest forecast is Cherry Capital Airport, 45.2 nm (83.7 km) WNW. Retrieved 2019/06/17 12:22 UTC (6 hours ago):

TAF KTVC 171120Z 1712/1812 00000KT P6SM SCT150 FM171800 02005KT P6SM SCT200 FM180100 00000KT P6SM SCT200